createdAt,value
2018-09-05T00:01:14.939Z,8.63
2018-09-05T00:03:42.067Z,9.23
2018-09-05T00:06:09.190Z,8.37
2018-09-05T00:08:36.345Z,8.73
2018-09-05T00:11:03.517Z,9.10
2018-09-05T00:13:30.659Z,8.93
2018-09-05T00:15:57.810Z,8.63
2018-09-05T00:18:24.963Z,8.80
2018-09-05T00:21:19.197Z,8.43
2018-09-05T00:23:46.393Z,8.40
2018-09-05T00:26:13.562Z,8.63
2018-09-05T00:28:40.699Z,8.27
2018-09-05T00:31:09.854Z,8.23
2018-09-05T00:33:37.114Z,8.33
2018-09-05T00:36:04.368Z,9.43
2018-09-05T00:38:31.624Z,8.17
2018-09-05T00:40:58.742Z,9.30
2018-09-05T00:43:25.992Z,8.50
2018-09-05T00:45:53.123Z,8.83
2018-09-05T00:48:20.258Z,9.03
2018-09-05T00:50:47.385Z,8.60
2018-09-05T00:53:14.517Z,9.03
2018-09-05T00:55:41.651Z,8.70
2018-09-05T00:58:08.773Z,9.37
2018-09-05T01:00:35.978Z,8.47
2018-09-05T01:03:03.100Z,9.10
2018-09-05T01:05:30.214Z,8.83
2018-09-05T01:07:57.364Z,9.03
2018-09-05T01:10:24.591Z,8.70
2018-09-05T01:12:51.740Z,9.83
2018-09-05T01:15:18.853Z,10.03
2018-09-05T01:17:45.961Z,8.77
2018-09-05T01:20:13.101Z,10.33
2018-09-05T01:22:40.237Z,9.93
2018-09-05T01:25:07.379Z,9.50
2018-09-05T01:27:34.555Z,9.73
2018-09-05T01:30:01.740Z,10.20
2018-09-05T01:32:28.803Z,11.47
2018-09-05T01:34:55.933Z,10.03
2018-09-05T01:37:23.074Z,10.20
2018-09-05T01:39:50.254Z,10.30
2018-09-05T01:42:17.365Z,10.33
2018-09-05T01:44:44.518Z,10.30
2018-09-05T01:47:11.651Z,10.03
2018-09-05T01:49:38.777Z,9.73
2018-09-05T01:52:05.887Z,10.47
2018-09-05T01:54:32.986Z,10.63
2018-09-05T01:57:00.094Z,10.50
2018-09-05T01:59:27.226Z,9.77
2018-09-05T02:01:54.383Z,11.03
2018-09-05T02:04:21.531Z,10.47
2018-09-05T02:06:48.742Z,10.23
2018-09-05T02:09:15.853Z,10.80
2018-09-05T02:11:43.312Z,10.67
2018-09-05T02:14:11.106Z,11.07
2018-09-05T02:16:38.471Z,11.03
2018-09-05T02:19:05.616Z,10.77
2018-09-05T02:21:33.003Z,11.37
2018-09-05T02:24:00.477Z,10.30
2018-09-05T02:26:27.591Z,11.30
2018-09-05T02:28:54.690Z,11.37
2018-09-05T02:31:21.814Z,11.47
2018-09-05T02:33:48.965Z,11.23
2018-09-05T02:36:16.279Z,10.63
2018-09-05T02:38:43.763Z,10.87
2018-09-05T02:41:10.912Z,10.63
2018-09-05T02:43:43.787Z,10.73
2018-09-05T02:46:10.918Z,10.50
2018-09-05T02:48:38.091Z,11.20
2018-09-05T02:51:05.198Z,11.97
2018-09-05T02:53:32.306Z,11.83
2018-09-05T02:56:01.919Z,10.87
2018-09-05T02:58:29.848Z,11.60
2018-09-05T03:00:57.114Z,11.33
2018-09-05T03:03:24.315Z,10.97
2018-09-05T03:05:51.440Z,11.00
2018-09-05T03:08:18.595Z,11.10
2018-09-05T03:10:45.763Z,11.40
2018-09-05T03:13:12.968Z,11.23
2018-09-05T03:15:40.131Z,11.77
2018-09-05T03:18:07.250Z,10.33
2018-09-05T03:20:34.355Z,11.20
2018-09-05T03:23:01.518Z,10.57
2018-09-05T03:25:28.695Z,11.40
2018-09-05T03:27:55.812Z,11.17
2018-09-05T03:30:22.930Z,11.40
2018-09-05T03:32:50.169Z,10.33
2018-09-05T03:35:17.292Z,10.50
2018-09-05T03:37:44.467Z,11.20
2018-09-05T03:40:11.641Z,10.63
2018-09-05T03:42:38.801Z,10.57
2018-09-05T03:45:06.050Z,11.10
2018-09-05T03:47:33.150Z,11.40
2018-09-05T03:50:00.253Z,10.57
2018-09-05T03:52:27.437Z,10.87
2018-09-05T03:54:54.535Z,10.57
2018-09-05T03:57:21.659Z,11.10
2018-09-05T03:59:48.814Z,11.00
2018-09-05T04:02:15.998Z,11.17
2018-09-05T04:04:43.258Z,11.33
2018-09-05T04:07:10.379Z,11.83
2018-09-05T04:09:37.483Z,11.40
2018-09-05T04:12:04.729Z,11.23
2018-09-05T04:14:31.831Z,11.03
2018-09-05T04:16:58.935Z,11.47
2018-09-05T04:19:26.128Z,12.10
2018-09-05T04:21:53.242Z,11.07
2018-09-05T04:24:20.366Z,11.73
2018-09-05T04:26:47.475Z,10.70
2018-09-05T04:29:14.662Z,10.70
2018-09-05T04:31:41.813Z,11.87
2018-09-05T04:34:08.925Z,11.87
2018-09-05T04:36:36.022Z,11.40
2018-09-05T04:39:05.308Z,11.60
2018-09-05T04:41:32.419Z,11.30
2018-09-05T04:43:59.541Z,11.83
2018-09-05T04:46:26.665Z,12.33
2018-09-05T04:48:53.835Z,11.77
2018-09-05T04:51:20.954Z,11.97
2018-09-05T04:53:48.147Z,12.67
2018-09-05T04:56:15.367Z,11.30
2018-09-05T04:58:42.564Z,11.57
2018-09-05T05:01:09.701Z,11.07
2018-09-05T05:03:36.842Z,12.73
2018-09-05T05:06:04.257Z,12.00
2018-09-05T05:08:31.261Z,11.73
2018-09-05T05:10:58.380Z,11.97
2018-09-05T05:13:25.508Z,11.77
2018-09-05T05:15:52.620Z,12.13
2018-09-05T05:18:19.726Z,12.07
2018-09-05T05:20:53.227Z,10.80
2018-09-05T05:23:20.375Z,11.87
2018-09-05T05:25:47.548Z,12.97
2018-09-05T05:28:14.957Z,12.60
2018-09-05T05:30:42.082Z,12.00
2018-09-05T05:33:09.183Z,12.60
2018-09-05T05:35:36.293Z,12.17
2018-09-05T05:38:03.442Z,11.17
2018-09-05T05:40:30.585Z,13.50
2018-09-05T05:42:57.705Z,12.67
2018-09-05T05:45:24.839Z,12.47
2018-09-05T05:47:51.967Z,13.17
2018-09-05T05:50:19.137Z,12.63
2018-09-05T05:52:46.287Z,11.90
2018-09-05T05:55:13.516Z,12.03
2018-09-05T05:57:40.595Z,11.50
2018-09-05T06:00:07.806Z,11.50
2018-09-05T06:02:34.951Z,11.07
2018-09-05T06:05:02.098Z,11.30
2018-09-05T06:07:29.209Z,11.50
2018-09-05T06:09:56.336Z,11.63
2018-09-05T06:12:23.444Z,12.43
2018-09-05T06:14:50.568Z,12.10
2018-09-05T06:17:17.752Z,11.77
2018-09-05T06:19:44.951Z,12.30
2018-09-05T06:22:12.087Z,12.07
2018-09-05T06:24:39.295Z,13.17
2018-09-05T06:27:06.388Z,12.13
2018-09-05T06:29:33.514Z,12.20
2018-09-05T06:32:00.622Z,12.97
2018-09-05T06:34:27.763Z,11.50
2018-09-05T06:36:54.916Z,11.70
2018-09-05T06:39:22.022Z,11.90
2018-09-05T06:41:49.134Z,12.13
2018-09-05T06:44:16.321Z,11.28
2018-09-05T06:46:43.504Z,11.55
2018-09-05T06:49:10.659Z,12.58
2018-09-05T06:51:37.780Z,12.47
2018-09-05T06:54:04.927Z,11.93
2018-09-05T06:56:32.127Z,11.68
2018-09-05T06:58:59.270Z,12.28
2018-09-05T07:01:26.400Z,12.80
2018-09-05T07:03:53.529Z,12.85
2018-09-05T07:06:20.627Z,12.82
2018-09-05T07:08:47.882Z,12.65
2018-09-05T07:11:14.959Z,12.50
2018-09-05T07:13:42.104Z,12.20
2018-09-05T07:16:09.241Z,12.53
2018-09-05T07:18:36.410Z,12.60
2018-09-05T07:21:06.655Z,12.28
2018-09-05T07:23:30.661Z,13.58
2018-09-05T07:25:57.776Z,13.18
2018-09-05T07:28:24.883Z,13.90
2018-09-05T07:30:52.007Z,13.25
2018-09-05T07:33:19.108Z,12.45
2018-09-05T07:35:46.359Z,12.68
2018-09-05T07:38:13.559Z,13.93
2018-09-05T07:40:40.733Z,13.85
2018-09-05T07:43:07.845Z,12.30
2018-09-05T07:45:35.006Z,14.23
2018-09-05T07:48:02.411Z,14.53
2018-09-05T07:50:29.540Z,16.32
2018-09-05T07:52:56.652Z,13.90
2018-09-05T07:55:23.759Z,14.07
2018-09-05T07:57:50.903Z,14.40
2018-09-05T08:00:18.088Z,13.53
2018-09-05T08:02:45.259Z,13.55
2018-09-05T08:05:12.405Z,14.23
2018-09-05T08:07:39.517Z,13.13
2018-09-05T08:10:06.675Z,12.55
2018-09-05T08:12:33.797Z,12.50
2018-09-05T08:15:00.923Z,13.13
2018-09-05T08:17:28.043Z,12.80
2018-09-05T08:19:55.170Z,11.78
2018-09-05T08:22:22.292Z,12.37
2018-09-05T08:24:49.938Z,12.05
2018-09-05T08:27:20.510Z,12.53
2018-09-05T08:29:47.717Z,12.18
2018-09-05T08:32:14.892Z,14.50
2018-09-05T08:34:42.088Z,12.73
2018-09-05T08:37:09.444Z,12.73
2018-09-05T08:39:36.299Z,12.80
2018-09-05T08:42:03.537Z,12.40
2018-09-05T08:44:30.659Z,12.55
2018-09-05T08:46:57.806Z,12.60
2018-09-05T08:49:24.844Z,11.95
2018-09-05T08:51:51.983Z,13.55
2018-09-05T08:54:19.117Z,12.98
2018-09-05T08:56:46.263Z,12.65
2018-09-05T08:59:13.475Z,13.15
2018-09-05T09:01:40.627Z,11.75
2018-09-05T09:04:07.730Z,11.73
2018-09-05T09:06:34.839Z,13.20
2018-09-05T09:09:02.116Z,13.45
2018-09-05T09:11:29.284Z,12.15
2018-09-05T09:13:56.426Z,13.45
2018-09-05T09:16:23.554Z,12.07
2018-09-05T09:18:50.717Z,12.20
2018-09-05T09:21:17.954Z,13.25
2018-09-05T09:23:45.156Z,11.28
2018-09-05T09:26:12.331Z,12.10
2018-09-05T09:28:39.453Z,11.80
2018-09-05T09:31:06.787Z,12.05
2018-09-05T09:33:33.975Z,13.08
2018-09-05T09:36:01.136Z,11.93
2018-09-05T09:38:28.285Z,12.05
2018-09-05T09:40:55.426Z,11.60
2018-09-05T09:43:22.526Z,11.55
2018-09-05T09:45:49.643Z,11.73
2018-09-05T09:48:16.814Z,12.15
2018-09-05T09:50:44.247Z,12.73
2018-09-05T09:53:11.443Z,11.28
2018-09-05T09:55:38.534Z,11.73
2018-09-05T09:58:05.656Z,11.10
2018-09-05T10:00:38.623Z,12.63
2018-09-05T10:03:11.586Z,11.73
2018-09-05T10:05:44.465Z,11.05
2018-09-05T10:08:17.480Z,11.20
2018-09-05T10:10:50.530Z,12.28
2018-09-05T10:13:23.456Z,18.27
2018-09-05T10:15:56.303Z,12.53
2018-09-05T10:18:25.375Z,11.65
2018-09-05T10:20:52.561Z,13.30
2018-09-05T10:23:19.672Z,12.90
2018-09-05T10:25:46.843Z,12.88
2018-09-05T10:28:14.097Z,11.60
2018-09-05T10:30:41.254Z,12.23
2018-09-05T10:33:08.432Z,13.35
2018-09-05T10:35:35.551Z,12.80
2018-09-05T10:38:02.743Z,13.03
2018-09-05T10:40:29.811Z,12.82
2018-09-05T10:42:56.911Z,12.37
2018-09-05T10:45:24.016Z,12.33
2018-09-05T10:47:51.127Z,12.75
2018-09-05T10:50:18.511Z,12.70
2018-09-05T10:52:45.928Z,12.37
2018-09-05T10:55:13.054Z,12.37
2018-09-05T10:57:40.211Z,12.53
2018-09-05T11:00:07.351Z,12.75
2018-09-05T11:02:34.471Z,13.10
2018-09-05T11:05:01.669Z,12.73
2018-09-05T11:07:28.826Z,12.65
2018-09-05T11:09:55.961Z,11.73
2018-09-05T11:12:23.062Z,12.47
2018-09-05T11:14:50.179Z,11.10
2018-09-05T11:17:17.360Z,12.05
2018-09-05T11:19:44.547Z,12.37
2018-09-05T11:22:11.669Z,11.97
2018-09-05T11:24:38.814Z,11.88
2018-09-05T11:27:06.007Z,10.35
2018-09-05T11:29:33.129Z,10.00
2018-09-05T11:32:00.216Z,10.70
2018-09-05T11:34:27.331Z,9.83
2018-09-05T11:36:54.492Z,8.90
2018-09-05T11:39:21.548Z,10.55
2018-09-05T11:41:48.715Z,10.23
2018-09-05T11:44:16.003Z,9.95
2018-09-05T11:46:43.186Z,9.70
2018-09-05T11:49:10.313Z,9.58
2018-09-05T11:51:37.464Z,10.13
2018-09-05T11:54:05.254Z,9.65
2018-09-05T11:56:32.379Z,10.28
2018-09-05T11:58:59.499Z,10.50
2018-09-05T12:01:26.619Z,9.38
2018-09-05T12:03:53.783Z,9.33
2018-09-05T12:06:20.920Z,9.85
2018-09-05T12:08:48.130Z,9.23
2018-09-05T12:11:15.302Z,8.70
2018-09-05T12:13:42.444Z,8.83
2018-09-05T12:16:09.561Z,9.08
2018-09-05T12:18:36.682Z,8.25
2018-09-05T12:21:03.799Z,7.78
2018-09-05T12:23:30.923Z,8.10
2018-09-05T12:25:58.091Z,8.15
2018-09-05T12:28:25.238Z,9.03
2018-09-05T12:30:52.411Z,8.50
2018-09-05T12:33:19.558Z,8.68
2018-09-05T12:35:46.797Z,8.53
2018-09-05T12:38:14.101Z,8.58
2018-09-05T12:40:41.257Z,8.63
2018-09-05T12:43:08.379Z,9.33
2018-09-05T12:45:35.486Z,8.93
2018-09-05T12:48:02.590Z,9.05
2018-09-05T12:50:29.703Z,9.38
2018-09-05T12:52:56.830Z,9.20
2018-09-05T12:55:24.004Z,8.70
2018-09-05T12:57:51.111Z,8.33
2018-09-05T13:00:18.316Z,8.33
2018-09-05T13:02:45.589Z,9.03
2018-09-05T13:05:12.800Z,9.38
2018-09-05T13:07:39.912Z,8.98
2018-09-05T13:10:07.071Z,9.15
2018-09-05T13:12:34.367Z,9.03
2018-09-05T13:15:01.512Z,8.93
2018-09-05T13:17:28.619Z,8.95
2018-09-05T13:19:55.728Z,9.20
2018-09-05T13:22:22.847Z,8.93
2018-09-05T13:24:50.000Z,9.58
2018-09-05T13:27:17.256Z,8.85
2018-09-05T13:29:44.453Z,9.80
2018-09-05T13:32:11.636Z,9.88
2018-09-05T13:34:38.965Z,9.98
2018-09-05T13:37:06.151Z,9.33
2018-09-05T13:39:33.255Z,10.23
2018-09-05T13:42:00.371Z,9.00
2018-09-05T13:44:27.494Z,8.48
2018-09-05T13:46:54.615Z,9.30
2018-09-05T13:49:21.774Z,9.95
2018-09-05T13:51:54.626Z,8.85
2018-09-05T13:54:21.767Z,8.38
2018-09-05T13:56:49.175Z,9.35
2018-09-05T13:59:16.350Z,9.00
2018-09-05T14:01:43.694Z,9.08
2018-09-05T14:04:10.835Z,10.08
2018-09-05T14:06:37.957Z,9.28
2018-09-05T14:09:07.819Z,9.20
2018-09-05T14:11:34.930Z,10.75
2018-09-05T14:14:02.092Z,9.25
2018-09-05T14:16:29.214Z,9.60
2018-09-05T14:18:56.331Z,9.00
2018-09-05T14:21:23.455Z,9.40
2018-09-05T14:23:50.590Z,9.93
2018-09-05T14:26:17.747Z,9.68
2018-09-05T14:28:44.906Z,9.50
2018-09-05T14:31:12.066Z,10.85
2018-09-05T14:33:39.208Z,10.63
2018-09-05T14:36:06.407Z,10.00
2018-09-05T14:38:33.523Z,9.98
2018-09-05T14:41:00.668Z,10.40
2018-09-05T14:43:27.793Z,9.63
2018-09-05T14:45:54.898Z,9.95
2018-09-05T14:48:22.132Z,10.50
2018-09-05T14:50:49.259Z,9.98
2018-09-05T14:53:16.495Z,10.68
2018-09-05T14:55:43.649Z,9.45
2018-09-05T14:58:10.757Z,9.78
2018-09-05T15:00:37.877Z,9.85
2018-09-05T15:03:05.068Z,9.73
2018-09-05T15:05:32.183Z,9.90
2018-09-05T15:07:59.320Z,9.45
2018-09-05T15:10:26.469Z,9.40
2018-09-05T15:12:53.617Z,9.10
2018-09-05T15:15:20.864Z,10.00
2018-09-05T15:17:48.075Z,9.68
2018-09-05T15:20:15.234Z,10.53
2018-09-05T15:22:42.353Z,9.85
2018-09-05T15:25:09.734Z,10.10
2018-09-05T15:27:36.845Z,10.65
2018-09-05T15:30:04.531Z,9.95
2018-09-05T15:32:31.680Z,9.58
2018-09-05T15:34:58.825Z,9.83
2018-09-05T15:37:25.955Z,9.33
2018-09-05T15:39:53.077Z,9.83
2018-09-05T15:42:20.222Z,9.65
2018-09-05T15:44:47.487Z,9.43
2018-09-05T15:47:14.808Z,9.65
2018-09-05T15:49:42.479Z,9.65
2018-09-05T15:52:09.609Z,10.00
2018-09-05T15:54:36.742Z,10.03
2018-09-05T15:57:03.879Z,9.90
2018-09-05T15:59:31.006Z,9.38
2018-09-05T16:01:58.212Z,9.63
2018-09-05T16:04:25.688Z,9.80
2018-09-05T16:06:52.851Z,9.55
2018-09-05T16:09:20.018Z,9.18
2018-09-05T16:11:47.351Z,9.28
2018-09-05T16:14:14.703Z,9.08
2018-09-05T16:16:41.819Z,9.53
2018-09-05T16:19:08.935Z,10.13
2018-09-05T16:21:36.119Z,8.83
2018-09-05T16:24:03.312Z,9.68
2018-09-05T16:26:30.506Z,8.73
2018-09-05T16:28:57.813Z,9.20
2018-09-05T16:31:24.959Z,9.13
2018-09-05T16:33:52.090Z,9.10
2018-09-05T16:36:19.288Z,9.58
2018-09-05T16:38:47.554Z,9.50
2018-09-05T16:41:14.754Z,9.38
2018-09-05T16:43:41.954Z,9.43
2018-09-05T16:46:09.088Z,9.25
2018-09-05T16:48:36.301Z,8.60
2018-09-05T16:51:03.387Z,9.60
2018-09-05T16:53:30.531Z,9.45
2018-09-05T16:55:57.630Z,9.40
2018-09-05T16:58:24.762Z,9.93
2018-09-05T17:00:51.876Z,9.40
2018-09-05T17:03:20.628Z,9.33
2018-09-05T17:05:48.414Z,8.85
2018-09-05T17:08:15.673Z,9.55
2018-09-05T17:10:42.831Z,9.73
2018-09-05T17:13:09.950Z,9.93
2018-09-05T17:15:37.108Z,8.70
2018-09-05T17:18:04.536Z,8.90
2018-09-05T17:20:31.639Z,9.25
2018-09-05T17:22:58.782Z,8.98
2018-09-05T17:25:25.900Z,9.80
2018-09-05T17:27:53.038Z,8.55
2018-09-05T17:30:20.376Z,8.45
2018-09-05T17:32:47.583Z,9.60
2018-09-05T17:35:14.876Z,9.20
2018-09-05T17:37:42.053Z,9.45
2018-09-05T17:40:09.198Z,8.83
2018-09-05T17:42:36.285Z,8.95
2018-09-05T17:45:03.494Z,9.70
2018-09-05T17:47:30.661Z,9.78
2018-09-05T17:49:57.775Z,7.92
2018-09-05T17:52:24.986Z,8.35
2018-09-05T17:54:52.115Z,8.18
2018-09-05T17:57:19.310Z,9.15
2018-09-05T17:59:46.502Z,8.23
2018-09-05T18:02:13.740Z,9.03
2018-09-05T18:04:40.848Z,9.30
2018-09-05T18:07:07.985Z,9.18
2018-09-05T18:09:35.128Z,10.15
2018-09-05T18:12:02.319Z,8.38
2018-09-05T18:14:29.535Z,8.98
2018-09-05T18:16:56.650Z,9.10
2018-09-05T18:19:23.775Z,9.27
2018-09-05T18:21:50.929Z,8.70
2018-09-05T18:24:18.243Z,9.20
2018-09-05T18:26:45.468Z,9.13
2018-09-05T18:29:12.603Z,9.57
2018-09-05T18:31:39.736Z,8.47
2018-09-05T18:34:06.848Z,8.57
2018-09-05T18:36:34.021Z,9.07
2018-09-05T18:39:01.110Z,9.27
2018-09-05T18:41:28.239Z,9.47
2018-09-05T18:43:55.348Z,9.47
2018-09-05T18:46:22.475Z,9.37
2018-09-05T18:48:50.581Z,9.40
2018-09-05T18:51:17.746Z,9.60
2018-09-05T18:53:44.957Z,10.17
2018-09-05T18:56:12.099Z,9.37
2018-09-05T18:58:39.263Z,9.87
2018-09-05T19:01:06.397Z,9.87
2018-09-05T19:03:33.542Z,9.80
2018-09-05T19:06:00.684Z,8.60
2018-09-05T19:08:27.947Z,8.67
2018-09-05T19:10:54.965Z,9.00
2018-09-05T19:13:22.112Z,8.50
2018-09-05T19:15:49.311Z,8.10
2018-09-05T19:18:16.552Z,8.70
2018-09-05T19:20:43.724Z,9.33
2018-09-05T19:23:10.868Z,9.03
2018-09-05T19:25:38.094Z,8.67
2018-09-05T19:28:05.253Z,8.93
2018-09-05T19:30:32.396Z,9.10
2018-09-05T19:32:59.535Z,8.47
2018-09-05T19:35:26.707Z,8.80
2018-09-05T19:37:53.867Z,8.80
2018-09-05T19:40:21.003Z,8.47
2018-09-05T19:42:48.189Z,9.13
2018-09-05T19:45:15.374Z,8.43
2018-09-05T19:47:42.500Z,8.27
2018-09-05T19:50:09.682Z,9.00
2018-09-05T19:52:36.763Z,8.47
2018-09-05T19:55:04.006Z,7.77
2018-09-05T19:57:31.191Z,9.10
2018-09-05T19:59:58.353Z,9.07
2018-09-05T20:02:25.486Z,8.83
2018-09-05T20:04:52.794Z,7.97
2018-09-05T20:07:19.943Z,8.57
2018-09-05T20:09:47.327Z,8.40
2018-09-05T20:12:14.603Z,9.30
2018-09-05T20:14:41.772Z,8.63
2018-09-05T20:17:08.938Z,8.50
2018-09-05T20:19:36.287Z,7.93
2018-09-05T20:22:03.439Z,8.17
2018-09-05T20:24:30.588Z,8.23
2018-09-05T20:26:57.726Z,8.40
2018-09-05T20:29:24.834Z,7.97
2018-09-05T20:31:52.127Z,8.27
2018-09-05T20:34:19.287Z,8.57
2018-09-05T20:36:46.503Z,8.50
2018-09-05T20:39:14.586Z,7.83
2018-09-05T20:41:41.689Z,8.37
2018-09-05T20:44:09.026Z,7.90
2018-09-05T20:46:36.247Z,7.90
2018-09-05T20:49:03.420Z,8.10
2018-09-05T20:51:30.555Z,8.07
2018-09-05T20:53:57.884Z,9.03
2018-09-05T20:56:25.019Z,8.50
2018-09-05T20:58:52.284Z,8.30
2018-09-05T21:01:19.412Z,8.00
2018-09-05T21:03:46.575Z,8.10
2018-09-05T21:06:13.764Z,7.97
2018-09-05T21:08:40.977Z,7.37
2018-09-05T21:11:08.105Z,7.73
2018-09-05T21:13:35.343Z,7.77
2018-09-05T21:16:02.454Z,7.97
2018-09-05T21:18:30.800Z,7.07
2018-09-05T21:20:59.065Z,7.07
2018-09-05T21:23:27.618Z,8.13
2018-09-05T21:25:54.747Z,7.63
2018-09-05T21:28:21.882Z,7.47
2018-09-05T21:30:49.062Z,7.47
2018-09-05T21:33:16.253Z,7.60
2018-09-05T21:35:43.530Z,8.10
2018-09-05T21:38:10.659Z,7.97
2018-09-05T21:40:37.790Z,7.37
2018-09-05T21:43:05.165Z,6.87
2018-09-05T21:45:32.331Z,7.00
2018-09-05T21:47:59.455Z,7.47
2018-09-05T21:50:26.555Z,7.27
2018-09-05T21:52:53.675Z,7.20
2018-09-05T21:55:20.850Z,6.37
2018-09-05T21:57:48.026Z,6.67
2018-09-05T22:00:15.206Z,6.40
2018-09-05T22:02:42.329Z,6.17
2018-09-05T22:05:09.487Z,6.77
2018-09-05T22:07:36.644Z,7.03
2018-09-05T22:10:03.759Z,6.90
2018-09-05T22:12:30.863Z,6.93
2018-09-05T22:14:57.973Z,7.17
2018-09-05T22:17:25.179Z,7.40
2018-09-05T22:19:52.295Z,7.00
2018-09-05T22:22:19.448Z,6.60
2018-09-05T22:24:46.583Z,6.70
2018-09-05T22:27:13.813Z,6.70
2018-09-05T22:29:40.953Z,7.10
2018-09-05T22:32:08.203Z,6.47
2018-09-05T22:34:35.190Z,6.80
2018-09-05T22:37:02.354Z,7.37
2018-09-05T22:39:29.453Z,7.40
2018-09-05T22:41:56.576Z,6.93
2018-09-05T22:44:35.721Z,6.93
2018-09-05T22:48:19.312Z,6.47
2018-09-05T22:51:06.617Z,6.83
2018-09-05T22:53:54.029Z,6.80
2018-09-05T22:56:47.528Z,7.20
2018-09-05T22:59:25.501Z,6.33
2018-09-05T23:02:47.873Z,6.37
2018-09-05T23:07:30.179Z,6.90
2018-09-05T23:10:08.920Z,7.47
2018-09-05T23:12:47.576Z,6.57
2018-09-05T23:15:26.326Z,7.10
2018-09-05T23:18:10.844Z,6.90
2018-09-05T23:20:52.376Z,6.53
2018-09-05T23:23:31.109Z,6.53
2018-09-05T23:25:58.254Z,6.40
2018-09-05T23:28:25.507Z,7.07
2018-09-05T23:30:52.660Z,6.70
2018-09-05T23:33:19.763Z,6.37
2018-09-05T23:35:46.887Z,6.50
2018-09-05T23:38:14.023Z,6.67
2018-09-05T23:40:41.153Z,6.77
2018-09-05T23:43:08.292Z,6.53
2018-09-05T23:45:35.817Z,6.13
2018-09-05T23:48:03.288Z,6.50
2018-09-05T23:50:30.512Z,6.50
2018-09-05T23:52:57.685Z,6.57
2018-09-05T23:55:24.839Z,6.00
2018-09-05T23:57:51.948Z,7.03
